createdAt,value
2018-11-25T00:00:12.628Z,925.99
2018-11-25T00:01:12.636Z,926.03
2018-11-25T00:02:12.653Z,926.03
2018-11-25T00:03:12.690Z,926.10
2018-11-25T00:04:12.676Z,926.11
2018-11-25T00:05:12.805Z,926.12
2018-11-25T00:06:12.714Z,926.08
2018-11-25T00:07:12.728Z,926.12
2018-11-25T00:08:12.751Z,926.09
2018-11-25T00:09:12.767Z,926.16
2018-11-25T00:10:12.889Z,926.19
2018-11-25T00:11:12.782Z,926.16
2018-11-25T00:12:12.864Z,926.18
2018-11-25T00:13:12.814Z,926.21
2018-11-25T00:14:12.868Z,926.26
2018-11-25T00:15:12.957Z,926.20
2018-11-25T00:16:12.864Z,926.19
2018-11-25T00:17:12.881Z,926.19
2018-11-25T00:18:12.896Z,926.20
2018-11-25T00:19:12.896Z,926.12
2018-11-25T00:20:13.091Z,926.11
2018-11-25T00:21:13.059Z,926.06
2018-11-25T00:22:12.959Z,926.06
2018-11-25T00:23:12.954Z,926.05
2018-11-25T00:24:12.984Z,926.06
2018-11-25T00:25:13.120Z,926.00
2018-11-25T00:26:13.002Z,926.04
2018-11-25T00:27:13.038Z,926.06
2018-11-25T00:28:13.053Z,926.09
2018-11-25T00:29:13.056Z,926.10
2018-11-25T00:30:13.235Z,926.09
2018-11-25T00:31:13.209Z,926.16
2018-11-25T00:32:13.114Z,926.18
2018-11-25T00:33:13.126Z,926.20
2018-11-25T00:34:13.139Z,926.20
2018-11-25T00:35:14.471Z,926.23
2018-11-25T00:36:13.210Z,926.27
2018-11-25T00:37:13.169Z,926.29
2018-11-25T00:38:13.207Z,926.32
2018-11-25T00:39:13.231Z,926.32
2018-11-25T00:40:13.448Z,926.34
2018-11-25T00:41:13.253Z,926.40
2018-11-25T00:42:13.261Z,926.39
2018-11-25T00:43:13.273Z,926.38
2018-11-25T00:44:13.289Z,926.38
2018-11-25T00:45:13.328Z,926.30
2018-11-25T00:46:13.430Z,926.36
2018-11-25T00:47:13.340Z,926.36
2018-11-25T00:48:13.370Z,926.43
2018-11-25T00:49:13.368Z,926.50
2018-11-25T00:50:13.370Z,926.52
2018-11-25T00:51:13.511Z,926.51
2018-11-25T00:52:13.530Z,926.55
2018-11-25T00:53:13.435Z,926.58
2018-11-25T00:54:13.435Z,926.59
2018-11-25T00:55:13.466Z,926.57
2018-11-25T00:56:13.593Z,926.60
2018-11-25T00:57:13.482Z,926.61
2018-11-25T00:58:13.512Z,926.63
2018-11-25T00:59:13.512Z,926.59
2018-11-25T01:00:13.654Z,926.62
2018-11-25T01:01:13.655Z,926.67
2018-11-25T01:02:13.566Z,926.70
2018-11-25T01:03:13.585Z,926.68
2018-11-25T01:04:13.610Z,926.71
2018-11-25T01:05:13.648Z,926.78
2018-11-25T01:06:13.668Z,926.77
2018-11-25T01:07:13.649Z,926.82
2018-11-25T01:08:13.706Z,926.84
2018-11-25T01:09:13.663Z,926.87
2018-11-25T01:10:13.691Z,926.83
2018-11-25T01:11:13.718Z,926.80
2018-11-25T01:12:13.716Z,926.79
2018-11-25T01:13:13.893Z,926.88
2018-11-25T01:14:13.742Z,926.82
2018-11-25T01:15:13.765Z,926.80
2018-11-25T01:16:13.768Z,926.74
2018-11-25T01:17:13.914Z,926.77
2018-11-25T01:18:13.911Z,926.76
2018-11-25T01:19:13.826Z,926.78
2018-11-25T01:20:13.954Z,926.73
2018-11-25T01:21:13.853Z,926.74
2018-11-25T01:22:13.876Z,926.71
2018-11-25T01:23:13.993Z,926.76
2018-11-25T01:24:13.896Z,926.76
2018-11-25T01:25:13.907Z,926.79
2018-11-25T01:26:13.926Z,926.80
2018-11-25T01:27:13.948Z,926.78
2018-11-25T01:28:14.055Z,926.77
2018-11-25T01:29:13.964Z,926.85
2018-11-25T01:30:13.985Z,926.83
2018-11-25T01:31:14.125Z,926.87
2018-11-25T01:32:14.022Z,926.92
2018-11-25T01:33:14.143Z,926.89
2018-11-25T01:34:14.072Z,926.90
2018-11-25T01:35:14.084Z,926.92
2018-11-25T01:36:14.125Z,926.92
2018-11-25T01:37:14.134Z,926.95
2018-11-25T01:38:14.217Z,926.96
2018-11-25T01:39:14.120Z,926.94
2018-11-25T01:40:14.265Z,926.90
2018-11-25T01:41:14.154Z,926.84
2018-11-25T01:42:14.292Z,926.83
2018-11-25T01:43:14.374Z,926.85
2018-11-25T01:44:14.271Z,926.88
2018-11-25T01:45:14.219Z,926.86
2018-11-25T01:46:14.230Z,926.85
2018-11-25T01:47:14.252Z,926.88
2018-11-25T01:48:14.457Z,926.88
2018-11-25T01:49:14.266Z,926.94
2018-11-25T01:50:14.317Z,926.94
2018-11-25T01:51:14.297Z,927.01
2018-11-25T01:52:14.346Z,926.99
2018-11-25T01:53:14.394Z,926.99
2018-11-25T01:54:14.475Z,927.04
2018-11-25T01:55:14.427Z,926.97
2018-11-25T01:56:14.374Z,926.96
2018-11-25T01:57:14.553Z,926.90
2018-11-25T01:58:14.410Z,926.88
2018-11-25T01:59:14.435Z,926.88
2018-11-25T02:00:14.453Z,926.86
2018-11-25T02:01:14.497Z,926.85
2018-11-25T02:02:14.527Z,926.88
2018-11-25T02:03:14.495Z,926.81
2018-11-25T02:04:14.505Z,926.80
2018-11-25T02:05:14.522Z,926.83
2018-11-25T02:06:14.633Z,926.82
2018-11-25T02:07:14.553Z,926.76
2018-11-25T02:08:14.564Z,926.73
2018-11-25T02:09:14.579Z,926.78
2018-11-25T02:10:14.606Z,926.73
2018-11-25T02:11:14.882Z,926.73
2018-11-25T02:12:14.638Z,926.81
2018-11-25T02:13:14.639Z,926.77
2018-11-25T02:14:14.663Z,926.82
2018-11-25T02:15:14.789Z,926.80
2018-11-25T02:16:14.737Z,926.74
2018-11-25T02:17:14.717Z,926.74
2018-11-25T02:18:14.721Z,926.70
2018-11-25T02:19:14.853Z,926.72
2018-11-25T02:20:14.768Z,926.76
2018-11-25T02:21:14.816Z,926.73
2018-11-25T02:22:14.883Z,926.69
2018-11-25T02:23:14.792Z,926.74
2018-11-25T02:24:14.813Z,926.75
2018-11-25T02:25:14.835Z,926.72
2018-11-25T02:26:14.839Z,926.71
2018-11-25T02:27:14.911Z,926.75
2018-11-25T02:28:14.877Z,926.76
2018-11-25T02:29:14.881Z,926.76
2018-11-25T02:30:15.120Z,926.73
2018-11-25T02:31:15.031Z,926.70
2018-11-25T02:32:14.929Z,926.66
2018-11-25T02:33:14.941Z,926.70
2018-11-25T02:34:14.948Z,926.59
2018-11-25T02:35:15.032Z,926.64
2018-11-25T02:36:14.985Z,926.68
2018-11-25T02:37:15.017Z,926.59
2018-11-25T02:38:15.017Z,926.63
2018-11-25T02:39:15.028Z,926.59
2018-11-25T02:40:15.175Z,926.67
2018-11-25T02:41:15.063Z,926.70
2018-11-25T02:42:15.079Z,926.73
2018-11-25T02:43:15.103Z,926.73
2018-11-25T02:44:15.104Z,926.78
2018-11-25T02:45:15.225Z,926.73
2018-11-25T02:46:15.140Z,926.78
2018-11-25T02:47:15.166Z,926.74
2018-11-25T02:48:15.182Z,926.73
2018-11-25T02:49:15.186Z,926.70
2018-11-25T02:50:15.285Z,926.72
2018-11-25T02:51:15.222Z,926.70
2018-11-25T02:52:15.248Z,926.66
2018-11-25T02:53:15.231Z,926.73
2018-11-25T02:54:15.274Z,926.79
2018-11-25T02:55:15.378Z,926.78
2018-11-25T02:56:15.291Z,926.79
2018-11-25T02:57:15.300Z,926.81
2018-11-25T02:58:15.326Z,926.83
2018-11-25T02:59:15.339Z,926.86
2018-11-25T03:00:15.500Z,926.85
2018-11-25T03:01:15.348Z,926.79
2018-11-25T03:02:15.375Z,926.80
2018-11-25T03:03:15.402Z,926.75
2018-11-25T03:04:15.460Z,926.72
2018-11-25T03:05:15.521Z,926.65
2018-11-25T03:06:15.489Z,926.72
2018-11-25T03:07:15.576Z,926.62
2018-11-25T03:08:15.475Z,926.64
2018-11-25T03:09:15.491Z,926.67
2018-11-25T03:10:15.624Z,926.69
2018-11-25T03:11:15.613Z,926.71
2018-11-25T03:12:15.522Z,926.71
2018-11-25T03:13:15.546Z,926.71
2018-11-25T03:14:15.562Z,926.69
2018-11-25T03:15:15.591Z,926.71
2018-11-25T03:16:15.731Z,926.72
2018-11-25T03:17:15.625Z,926.67
2018-11-25T03:18:15.621Z,926.65
2018-11-25T03:19:15.681Z,926.62
2018-11-25T03:20:15.665Z,926.58
2018-11-25T03:21:15.816Z,926.59
2018-11-25T03:22:15.700Z,926.62
2018-11-25T03:23:15.714Z,926.64
2018-11-25T03:24:15.711Z,926.66
2018-11-25T03:25:15.733Z,926.67
2018-11-25T03:26:15.795Z,926.66
2018-11-25T03:27:15.769Z,926.62
2018-11-25T03:28:15.873Z,926.60
2018-11-25T03:29:15.806Z,926.54
2018-11-25T03:30:15.819Z,926.58
2018-11-25T03:31:15.838Z,926.53
2018-11-25T03:32:15.833Z,926.56
2018-11-25T03:33:16.075Z,926.51
2018-11-25T03:34:15.869Z,926.50
2018-11-25T03:35:15.895Z,926.52
2018-11-25T03:36:16.020Z,926.49
2018-11-25T03:37:15.923Z,926.50
2018-11-25T03:38:16.026Z,926.47
2018-11-25T03:39:15.941Z,926.42
2018-11-25T03:40:15.964Z,926.41
2018-11-25T03:41:15.980Z,926.37
2018-11-25T03:42:15.996Z,926.35
2018-11-25T03:43:16.045Z,926.36
2018-11-25T03:44:16.013Z,926.36
2018-11-25T03:45:16.026Z,926.42
2018-11-25T03:46:16.070Z,926.45
2018-11-25T03:47:16.190Z,926.48
2018-11-25T03:48:16.183Z,926.44
2018-11-25T03:49:16.106Z,926.42
2018-11-25T03:50:16.111Z,926.44
2018-11-25T03:51:16.148Z,926.45
2018-11-25T03:52:16.187Z,926.42
2018-11-25T03:53:16.314Z,926.49
2018-11-25T03:54:16.171Z,926.49
2018-11-25T03:55:16.221Z,926.52
2018-11-25T03:56:16.210Z,926.51
2018-11-25T03:57:16.220Z,926.52
2018-11-25T03:58:16.240Z,926.47
2018-11-25T03:59:16.309Z,926.43
2018-11-25T04:00:16.268Z,926.42
2018-11-25T04:01:16.380Z,926.39
2018-11-25T04:02:16.416Z,926.42
2018-11-25T04:03:16.313Z,926.43
2018-11-25T04:04:16.332Z,926.39
2018-11-25T04:05:16.349Z,926.43
2018-11-25T04:06:16.420Z,926.47
2018-11-25T04:07:16.370Z,926.46
2018-11-25T04:08:16.389Z,926.42
2018-11-25T04:09:16.402Z,926.41
2018-11-25T04:10:16.431Z,926.41
2018-11-25T04:11:16.571Z,926.40
2018-11-25T04:12:16.459Z,926.41
2018-11-25T04:13:16.460Z,926.39
2018-11-25T04:14:16.490Z,926.42
2018-11-25T04:15:16.515Z,926.41
2018-11-25T04:16:16.615Z,926.43
2018-11-25T04:17:16.519Z,926.44
2018-11-25T04:18:16.552Z,926.43
2018-11-25T04:19:16.673Z,926.44
2018-11-25T04:20:16.560Z,926.42
2018-11-25T04:21:16.626Z,926.47
2018-11-25T04:22:16.595Z,926.45
2018-11-25T04:23:16.606Z,926.46
2018-11-25T04:24:16.752Z,926.49
2018-11-25T04:25:16.748Z,926.49
2018-11-25T04:26:16.649Z,926.47
2018-11-25T04:27:16.675Z,926.48
2018-11-25T04:28:16.720Z,926.47
2018-11-25T04:29:16.717Z,926.51
2018-11-25T04:30:16.890Z,926.46
2018-11-25T04:31:16.768Z,926.47
2018-11-25T04:32:16.745Z,926.43
2018-11-25T04:33:16.785Z,926.42
2018-11-25T04:34:16.780Z,926.43
2018-11-25T04:35:16.914Z,926.43
2018-11-25T04:36:16.808Z,926.46
2018-11-25T04:37:16.833Z,926.46
2018-11-25T04:38:16.849Z,926.51
2018-11-25T04:39:16.875Z,926.52
2018-11-25T04:40:16.985Z,926.52
2018-11-25T04:41:16.893Z,926.57
2018-11-25T04:42:16.901Z,926.54
2018-11-25T04:43:16.942Z,926.53
2018-11-25T04:44:16.942Z,926.57
2018-11-25T04:45:17.098Z,926.53
2018-11-25T04:46:16.985Z,926.55
2018-11-25T04:47:16.975Z,926.52
2018-11-25T04:48:17.017Z,926.54
2018-11-25T04:49:17.017Z,926.54
2018-11-25T04:50:17.194Z,926.57
2018-11-25T04:51:17.032Z,926.55
2018-11-25T04:52:17.072Z,926.57
2018-11-25T04:53:17.075Z,926.60
2018-11-25T04:54:17.077Z,926.63
2018-11-25T04:55:17.266Z,926.64
2018-11-25T04:56:17.125Z,926.65
2018-11-25T04:57:17.141Z,926.64
2018-11-25T04:58:17.152Z,926.63
2018-11-25T04:59:17.165Z,926.63
2018-11-25T05:00:17.275Z,926.65
2018-11-25T05:01:17.178Z,926.69
2018-11-25T05:02:17.201Z,926.70
2018-11-25T05:03:17.227Z,926.76
2018-11-25T05:04:17.239Z,926.77
2018-11-25T05:05:17.345Z,926.79
2018-11-25T05:06:17.263Z,926.80
2018-11-25T05:07:17.296Z,926.77
2018-11-25T05:08:17.321Z,926.73
2018-11-25T05:09:17.311Z,926.72
2018-11-25T05:10:17.367Z,926.69
2018-11-25T05:11:17.338Z,926.66
2018-11-25T05:12:17.341Z,926.67
2018-11-25T05:13:17.483Z,926.73
2018-11-25T05:14:17.395Z,926.74
2018-11-25T05:15:17.561Z,926.77
2018-11-25T05:16:17.405Z,926.71
2018-11-25T05:17:17.440Z,926.67
2018-11-25T05:18:17.448Z,926.66
2018-11-25T05:19:17.466Z,926.67
2018-11-25T05:20:17.685Z,926.63
2018-11-25T05:21:17.470Z,926.73
2018-11-25T05:22:17.493Z,926.75
2018-11-25T05:23:17.512Z,926.73
2018-11-25T05:24:17.526Z,926.77
2018-11-25T05:25:17.681Z,926.75
2018-11-25T05:26:17.562Z,926.75
2018-11-25T05:27:17.575Z,926.72
2018-11-25T05:28:17.595Z,926.73
2018-11-25T05:29:17.603Z,926.73
2018-11-25T05:30:17.827Z,926.71
2018-11-25T05:31:17.626Z,926.74
2018-11-25T05:32:17.645Z,926.75
2018-11-25T05:33:17.644Z,926.78
2018-11-25T05:34:17.672Z,926.76
2018-11-25T05:35:17.832Z,926.79
2018-11-25T05:36:17.691Z,926.78
2018-11-25T05:37:17.695Z,926.78
2018-11-25T05:38:17.717Z,926.82
2018-11-25T05:39:17.750Z,926.82
2018-11-25T05:40:17.845Z,926.76
2018-11-25T05:41:17.771Z,926.70
2018-11-25T05:42:17.786Z,926.66
2018-11-25T05:43:17.802Z,926.68
2018-11-25T05:44:17.799Z,926.67
2018-11-25T05:45:17.970Z,926.68
2018-11-25T05:46:17.855Z,926.66
2018-11-25T05:47:17.857Z,926.68
2018-11-25T05:48:17.865Z,926.66
2018-11-25T05:49:17.874Z,926.68
2018-11-25T05:50:18.037Z,926.68
2018-11-25T05:51:17.911Z,926.70
2018-11-25T05:52:17.916Z,926.72
2018-11-25T05:53:17.936Z,926.73
2018-11-25T05:54:17.960Z,926.72
2018-11-25T05:55:18.115Z,926.66
2018-11-25T05:56:17.977Z,926.67
2018-11-25T05:57:17.992Z,926.69
2018-11-25T05:58:18.124Z,926.68
2018-11-25T05:59:18.022Z,926.71
2018-11-25T06:00:18.103Z,926.72
2018-11-25T06:01:18.072Z,926.72
2018-11-25T06:02:18.065Z,926.72
2018-11-25T06:03:18.083Z,926.71
2018-11-25T06:04:18.206Z,926.70
2018-11-25T06:05:18.199Z,926.69
2018-11-25T06:06:18.104Z,926.70
2018-11-25T06:07:18.142Z,926.77
2018-11-25T06:08:18.141Z,926.74
2018-11-25T06:09:18.158Z,926.78
2018-11-25T06:10:18.261Z,926.79
2018-11-25T06:11:18.183Z,926.82
2018-11-25T06:12:18.207Z,926.78
2018-11-25T06:13:18.209Z,926.78
2018-11-25T06:14:18.349Z,926.77
2018-11-25T06:15:18.343Z,926.78
2018-11-25T06:16:18.258Z,926.72
2018-11-25T06:17:18.277Z,926.71
2018-11-25T06:18:18.402Z,926.71
2018-11-25T06:19:18.302Z,926.64
2018-11-25T06:20:18.473Z,926.66
2018-11-25T06:21:18.335Z,926.69
2018-11-25T06:22:18.354Z,926.65
2018-11-25T06:23:18.350Z,926.66
2018-11-25T06:24:18.383Z,926.70
2018-11-25T06:25:18.654Z,926.67
2018-11-25T06:26:18.517Z,926.66
2018-11-25T06:27:18.422Z,926.68
2018-11-25T06:28:18.418Z,926.66
2018-11-25T06:29:18.443Z,926.72
2018-11-25T06:30:18.552Z,926.73
2018-11-25T06:31:18.586Z,926.78
2018-11-25T06:32:18.486Z,926.75
2018-11-25T06:33:18.492Z,926.76
2018-11-25T06:34:18.512Z,926.80
2018-11-25T06:35:18.703Z,926.77
2018-11-25T06:36:18.533Z,926.77
2018-11-25T06:37:18.588Z,926.76
2018-11-25T06:38:18.613Z,926.77
2018-11-25T06:39:18.584Z,926.80
2018-11-25T06:40:18.781Z,926.80
2018-11-25T06:41:18.612Z,926.82
2018-11-25T06:42:18.635Z,926.82
2018-11-25T06:43:18.630Z,926.85
2018-11-25T06:44:18.646Z,926.78
2018-11-25T06:45:18.706Z,926.80
2018-11-25T06:46:18.801Z,926.81
2018-11-25T06:47:18.692Z,926.81
2018-11-25T06:48:18.739Z,926.76
2018-11-25T06:49:18.886Z,926.77
2018-11-25T06:50:18.737Z,926.76
2018-11-25T06:51:18.776Z,926.75
2018-11-25T06:52:18.767Z,926.80
2018-11-25T06:53:18.793Z,926.83
2018-11-25T06:54:18.932Z,926.82
2018-11-25T06:55:18.807Z,926.80
2018-11-25T06:56:18.809Z,926.78
2018-11-25T06:57:18.839Z,926.84
2018-11-25T06:58:18.846Z,926.81
2018-11-25T06:59:19.133Z,926.84
2018-11-25T07:00:18.885Z,926.85
2018-11-25T07:01:18.944Z,926.84
2018-11-25T07:02:18.923Z,926.83
2018-11-25T07:03:18.945Z,926.83
2018-11-25T07:04:19.080Z,926.84
2018-11-25T07:05:18.950Z,926.85
2018-11-25T07:06:19.080Z,926.84
2018-11-25T07:07:18.989Z,926.81
2018-11-25T07:08:19.016Z,926.82
2018-11-25T07:09:19.277Z,926.80
2018-11-25T07:10:19.032Z,926.84
2018-11-25T07:11:19.152Z,926.83
2018-11-25T07:12:19.053Z,926.84
2018-11-25T07:13:19.072Z,926.84
2018-11-25T07:14:19.131Z,926.84
2018-11-25T07:15:19.077Z,926.82
2018-11-25T07:16:19.106Z,926.81
2018-11-25T07:17:19.117Z,926.83
2018-11-25T07:18:19.167Z,926.84
2018-11-25T07:19:19.242Z,926.84
2018-11-25T07:20:19.159Z,926.87
2018-11-25T07:21:19.292Z,926.89
2018-11-25T07:22:19.305Z,926.82
2018-11-25T07:23:19.193Z,926.87
2018-11-25T07:24:19.260Z,926.88
2018-11-25T07:25:19.253Z,926.87
2018-11-25T07:26:19.245Z,926.91
2018-11-25T07:27:19.402Z,926.90
2018-11-25T07:28:19.275Z,926.97
2018-11-25T07:29:19.334Z,926.97
2018-11-25T07:30:19.319Z,926.98
2018-11-25T07:31:19.321Z,926.98
2018-11-25T07:32:19.477Z,926.96
2018-11-25T07:33:19.344Z,927.03
2018-11-25T07:34:19.343Z,927.03
2018-11-25T07:35:19.359Z,927.05
2018-11-25T07:36:19.392Z,927.06
2018-11-25T07:37:19.403Z,927.06
2018-11-25T07:38:19.635Z,927.05
2018-11-25T07:39:19.427Z,927.09
2018-11-25T07:40:19.446Z,927.04
2018-11-25T07:41:19.512Z,927.08
2018-11-25T07:42:19.471Z,927.07
2018-11-25T07:43:19.539Z,927.05
2018-11-25T07:44:19.616Z,927.06
2018-11-25T07:45:19.532Z,927.04
2018-11-25T07:46:19.570Z,927.07
2018-11-25T07:47:19.560Z,927.09
2018-11-25T07:48:19.698Z,927.08
2018-11-25T07:49:19.560Z,927.10
2018-11-25T07:50:19.700Z,927.11
2018-11-25T07:51:19.591Z,927.12
2018-11-25T07:52:19.611Z,927.14
2018-11-25T07:53:19.608Z,927.16
2018-11-25T07:54:19.733Z,927.12
2018-11-25T07:55:19.664Z,927.10
2018-11-25T07:56:19.672Z,927.18
2018-11-25T07:57:19.714Z,927.15
2018-11-25T07:58:19.694Z,927.15
2018-11-25T07:59:19.871Z,927.15
2018-11-25T08:00:19.708Z,927.16
2018-11-25T08:01:19.742Z,927.16
2018-11-25T08:02:19.755Z,927.18
2018-11-25T08:03:19.751Z,927.16
2018-11-25T08:04:19.933Z,927.19
2018-11-25T08:05:19.785Z,927.18
2018-11-25T08:06:19.829Z,927.20
2018-11-25T08:07:19.813Z,927.25
2018-11-25T08:08:19.837Z,927.23
2018-11-25T08:09:19.900Z,927.24
2018-11-25T08:10:19.879Z,927.27
2018-11-25T08:11:19.878Z,927.25
2018-11-25T08:12:19.887Z,927.32
2018-11-25T08:13:20.021Z,927.28
2018-11-25T08:14:20.024Z,927.26
2018-11-25T08:15:19.928Z,927.31
2018-11-25T08:16:19.938Z,927.35
2018-11-25T08:17:19.962Z,927.37
2018-11-25T08:18:19.979Z,927.30
2018-11-25T08:19:20.133Z,927.34
2018-11-25T08:20:20.012Z,927.36
2018-11-25T08:21:20.026Z,927.38
2018-11-25T08:22:20.036Z,927.42
2018-11-25T08:23:20.067Z,927.44
2018-11-25T08:24:20.142Z,927.44
2018-11-25T08:25:20.192Z,927.48
2018-11-25T08:26:20.095Z,927.48
2018-11-25T08:27:20.094Z,927.49
2018-11-25T08:28:20.108Z,927.51
2018-11-25T08:29:20.174Z,927.50
2018-11-25T08:30:20.155Z,927.51
2018-11-25T08:31:20.153Z,927.56
2018-11-25T08:32:20.306Z,927.54
2018-11-25T08:33:20.179Z,927.57
2018-11-25T08:34:21.357Z,927.60
2018-11-25T08:35:20.223Z,927.60
2018-11-25T08:36:20.267Z,927.54
2018-11-25T08:37:20.342Z,927.60
2018-11-25T08:38:20.267Z,927.60
2018-11-25T08:39:20.286Z,927.60
2018-11-25T08:40:20.457Z,927.67
2018-11-25T08:41:20.310Z,927.63
2018-11-25T08:42:20.343Z,927.63
2018-11-25T08:43:20.370Z,927.66
2018-11-25T08:44:20.344Z,927.67
2018-11-25T08:45:20.343Z,927.66
2018-11-25T08:46:20.376Z,927.64
2018-11-25T08:47:20.375Z,927.65
2018-11-25T08:48:20.387Z,927.67
2018-11-25T08:49:20.460Z,927.69
2018-11-25T08:50:20.409Z,927.70
2018-11-25T08:51:20.554Z,927.72
2018-11-25T08:52:20.454Z,927.79
2018-11-25T08:53:20.574Z,927.78
2018-11-25T08:54:20.492Z,927.79
2018-11-25T08:55:20.479Z,927.83
2018-11-25T08:56:20.499Z,927.81
2018-11-25T08:57:20.533Z,927.82
2018-11-25T08:58:20.805Z,927.84
2018-11-25T08:59:20.535Z,927.85
2018-11-25T09:00:20.559Z,927.87
2018-11-25T09:01:20.591Z,927.86
2018-11-25T09:02:20.618Z,927.88
2018-11-25T09:03:20.741Z,927.89
2018-11-25T09:04:20.623Z,927.89
2018-11-25T09:05:20.752Z,927.91
2018-11-25T09:06:20.649Z,927.87
2018-11-25T09:07:20.684Z,927.91
2018-11-25T09:08:20.826Z,927.91
2018-11-25T09:09:20.807Z,927.97
2018-11-25T09:10:20.707Z,927.96
2018-11-25T09:11:20.724Z,927.93
2018-11-25T09:12:20.743Z,927.99
2018-11-25T09:13:20.885Z,927.98
2018-11-25T09:14:20.763Z,928.02
2018-11-25T09:15:20.785Z,928.00
2018-11-25T09:16:20.783Z,928.02
2018-11-25T09:17:20.813Z,928.05
2018-11-25T09:18:20.954Z,928.06
2018-11-25T09:19:20.950Z,928.08
2018-11-25T09:20:20.847Z,928.09
2018-11-25T09:21:20.855Z,928.08
2018-11-25T09:22:20.894Z,928.12
2018-11-25T09:23:20.987Z,928.15
2018-11-25T09:24:20.906Z,928.13
2018-11-25T09:25:20.918Z,928.16
2018-11-25T09:26:20.929Z,928.14
2018-11-25T09:27:20.940Z,928.15
2018-11-25T09:28:20.968Z,928.18
2018-11-25T09:29:21.128Z,928.13
2018-11-25T09:30:20.977Z,928.19
2018-11-25T09:31:21.004Z,928.21
2018-11-25T09:32:23.074Z,928.20
2018-11-25T09:33:21.037Z,928.25
2018-11-25T09:34:21.268Z,928.27
2018-11-25T09:35:21.070Z,928.24
2018-11-25T09:36:21.074Z,928.28
2018-11-25T09:37:21.085Z,928.26
2018-11-25T09:38:21.104Z,928.28
2018-11-25T09:39:21.225Z,928.34
2018-11-25T09:40:21.252Z,928.35
2018-11-25T09:41:21.160Z,928.36
2018-11-25T09:42:21.284Z,928.38
2018-11-25T09:43:21.191Z,928.37
2018-11-25T09:44:21.337Z,928.37
2018-11-25T09:45:21.203Z,928.42
2018-11-25T09:46:21.217Z,928.43
2018-11-25T09:47:21.231Z,928.42
2018-11-25T09:48:21.262Z,928.50
2018-11-25T09:49:21.486Z,928.51
2018-11-25T09:50:21.291Z,928.52
2018-11-25T09:51:21.299Z,928.50
2018-11-25T09:52:21.321Z,928.53
2018-11-25T09:53:21.323Z,928.58
2018-11-25T09:54:21.384Z,928.55
2018-11-25T09:55:21.350Z,928.60
2018-11-25T09:56:21.358Z,928.62
2018-11-25T09:57:21.505Z,928.63
2018-11-25T09:58:25.386Z,928.60
2018-11-25T09:59:21.561Z,928.65
2018-11-25T10:00:21.439Z,928.68
2018-11-25T10:01:21.450Z,928.69
2018-11-25T10:02:21.456Z,928.69
2018-11-25T10:03:21.469Z,928.75
2018-11-25T10:04:21.649Z,928.81
2018-11-25T10:05:21.518Z,928.80
2018-11-25T10:06:21.539Z,928.83
2018-11-25T10:07:21.574Z,928.82
2018-11-25T10:08:21.542Z,928.82
2018-11-25T10:09:21.573Z,928.83
2018-11-25T10:10:21.783Z,928.83
2018-11-25T10:11:21.600Z,928.85
2018-11-25T10:12:21.595Z,928.81
2018-11-25T10:13:21.625Z,928.89
2018-11-25T10:15:21.768Z,928.92
2018-11-25T10:16:21.681Z,928.93
2018-11-25T10:17:21.674Z,928.91
2018-11-25T10:18:21.745Z,928.91
2018-11-25T10:19:21.702Z,928.92
2018-11-25T10:20:21.825Z,928.92
2018-11-25T10:21:21.739Z,928.94
2018-11-25T10:22:21.770Z,928.96
2018-11-25T10:23:21.773Z,928.98
2018-11-25T10:24:21.793Z,929.01
2018-11-25T10:25:21.913Z,929.08
2018-11-25T10:26:21.942Z,929.04
2018-11-25T10:27:21.831Z,929.07
2018-11-25T10:28:21.862Z,929.06
2018-11-25T10:29:21.860Z,929.13
2018-11-25T10:30:22.156Z,929.15
2018-11-25T10:31:21.903Z,929.20
2018-11-25T10:32:21.917Z,929.20
2018-11-25T10:33:21.928Z,929.24
2018-11-25T10:34:21.960Z,929.26
2018-11-25T10:35:21.973Z,929.28
2018-11-25T10:36:22.083Z,929.29
2018-11-25T10:37:22.039Z,929.32
2018-11-25T10:38:22.006Z,929.32
2018-11-25T10:39:22.026Z,929.34
2018-11-25T10:40:22.032Z,929.34
2018-11-25T10:41:22.099Z,929.36
2018-11-25T10:42:22.073Z,929.34
2018-11-25T10:43:22.081Z,929.35
2018-11-25T10:44:22.250Z,929.39
2018-11-25T10:45:22.115Z,929.37
2018-11-25T10:46:22.155Z,929.37
2018-11-25T10:47:22.166Z,929.38
2018-11-25T10:48:22.200Z,929.39
2018-11-25T10:49:22.559Z,929.39
2018-11-25T10:50:22.331Z,929.37
2018-11-25T10:51:22.234Z,929.41
2018-11-25T10:52:22.281Z,929.40
2018-11-25T10:53:22.272Z,929.38
2018-11-25T10:54:22.433Z,929.35
2018-11-25T10:55:22.300Z,929.39
2018-11-25T10:56:22.326Z,929.42
2018-11-25T10:57:22.386Z,929.40
2018-11-25T10:58:22.468Z,929.40
2018-11-25T10:59:22.409Z,929.40
2018-11-25T11:00:22.480Z,929.44
2018-11-25T11:01:22.413Z,929.43
2018-11-25T11:02:22.413Z,929.47
2018-11-25T11:03:22.423Z,929.46
2018-11-25T11:04:22.570Z,929.43
2018-11-25T11:05:22.516Z,929.43
2018-11-25T11:06:22.492Z,929.47
2018-11-25T11:07:22.507Z,929.47
2018-11-25T11:08:22.642Z,929.49
2018-11-25T11:09:22.536Z,929.53
2018-11-25T11:10:22.599Z,929.52
2018-11-25T11:11:22.570Z,929.48
2018-11-25T11:12:22.604Z,929.47
2018-11-25T11:13:22.610Z,929.51
2018-11-25T11:14:22.622Z,929.49
2018-11-25T11:15:22.754Z,929.52
2018-11-25T11:16:22.679Z,929.58
2018-11-25T11:17:22.680Z,929.56
2018-11-25T11:18:22.697Z,929.61
2018-11-25T11:19:22.833Z,929.63
2018-11-25T11:20:22.883Z,929.60
2018-11-25T11:21:22.781Z,929.60
2018-11-25T11:22:22.796Z,929.58
2018-11-25T11:23:22.790Z,929.63
2018-11-25T11:24:22.813Z,929.62
2018-11-25T11:25:22.964Z,929.59
2018-11-25T11:26:22.954Z,929.61
2018-11-25T11:27:22.860Z,929.61
2018-11-25T11:28:22.868Z,929.61
2018-11-25T11:29:22.884Z,929.55
2018-11-25T11:30:22.995Z,929.60
2018-11-25T11:31:23.042Z,929.60
2018-11-25T11:32:22.944Z,929.58
2018-11-25T11:33:22.970Z,929.65
2018-11-25T11:34:22.980Z,929.66
2018-11-25T11:35:22.995Z,929.65
2018-11-25T11:36:23.280Z,929.67
2018-11-25T11:37:23.023Z,929.67
2018-11-25T11:38:23.052Z,929.67
2018-11-25T11:39:23.180Z,929.70
2018-11-25T11:40:23.077Z,929.71
2018-11-25T11:41:23.101Z,929.71
2018-11-25T11:42:28.474Z,929.72
2018-11-25T11:43:23.123Z,929.68
2018-11-25T11:44:23.153Z,929.70
2018-11-25T11:45:23.158Z,929.72
2018-11-25T11:46:23.199Z,929.77
2018-11-25T11:47:23.377Z,929.74
2018-11-25T11:48:23.337Z,929.79
2018-11-25T11:49:23.242Z,929.78
2018-11-25T11:50:23.257Z,929.80
2018-11-25T11:51:25.659Z,929.80
2018-11-25T11:52:23.427Z,929.80
2018-11-25T11:53:23.303Z,929.83
2018-11-25T11:54:23.319Z,929.87
2018-11-25T11:55:23.326Z,929.85
2018-11-25T11:56:23.361Z,929.87
2018-11-25T11:57:23.501Z,929.84
2018-11-25T11:58:23.496Z,929.86
2018-11-25T11:59:23.423Z,929.88
2018-11-25T12:00:23.450Z,929.93
2018-11-25T12:01:23.487Z,929.97
2018-11-25T12:02:23.460Z,929.87
2018-11-25T12:03:26.559Z,929.92
2018-11-25T12:04:23.503Z,929.94
2018-11-25T12:05:23.516Z,929.91
2018-11-25T12:06:23.549Z,929.97
2018-11-25T12:07:23.555Z,929.97
2018-11-25T12:08:23.718Z,930.06
2018-11-25T12:09:23.579Z,930.06
2018-11-25T12:10:23.609Z,930.04
2018-11-25T12:11:23.628Z,930.03
2018-11-25T12:12:23.654Z,930.04
2018-11-25T12:13:23.668Z,929.99
2018-11-25T12:14:23.774Z,930.09
2018-11-25T12:15:30.301Z,930.07
2018-11-25T12:16:23.760Z,930.12
2018-11-25T12:17:23.751Z,930.14
2018-11-25T12:18:23.757Z,930.16
2018-11-25T12:19:23.943Z,930.18
2018-11-25T12:20:23.776Z,930.20
2018-11-25T12:21:23.797Z,930.15
2018-11-25T12:22:23.810Z,930.20
2018-11-25T12:23:23.957Z,930.21
2018-11-25T12:24:23.953Z,930.23
2018-11-25T12:25:23.868Z,930.18
2018-11-25T12:26:23.883Z,930.21
2018-11-25T12:27:23.913Z,930.22
2018-11-25T12:28:23.986Z,930.30
2018-11-25T12:29:24.095Z,930.30